Silver Etrema — V7QV9 — position and weather

sailwx.info

Track history (hours):
 
Tides and Currents Weather Stations Pressure Air Temp Water Temp Dewpoint Dewpoint Depression Visibility Wind Speed Wind Dir Waves Ship Positions

Silver Etrema

Last reported at 2017-Dec-08 21:32 UTC. Time now 2017-Dec-12 04:48 UTC.
Position N 01°14' E 103°58'.

Length 183 m; draft 11.7 m.

Type: Tanker. MMSI: 538006745.

Date/timePositionNaut miles runAvg speedWind from/ knotsBaromVisibWave heightAir tempDewpointWater temp
2017-Dec-08 21:32N 01°14' E 103°58'112.8
2017-Dec-08 21:30N 01°14' E 103°57'611.9
2017-Dec-08 21:00N 01°11' E 103°52'611.0
2017-Dec-08 20:30N 01°09' E 103°47'611.3
2017-Dec-08 20:00N 01°05' E 103°43'611.4
2017-Dec-08 19:30N 01°04' E 103°37'610.7
2017-Dec-08 18:59N 01°09' E 103°33'4 8.3
2017-Dec-08 18:30N 01°11' E 103°36'4 7.5
2017-Dec-08 18:00N 01°12' E 103°40'1 2.4
2017-Dec-08 17:30N 01°12' E 103°41'0 0.0
2017-Dec-08 16:59N 01°12' E 103°41'0 0.0
2017-Dec-08 16:29N 01°12' E 103°41'0 0.0
2017-Dec-08 15:59N 01°12' E 103°41'0 0.0
2017-Dec-08 15:26N 01°12' E 103°41'0 0.2
2017-Dec-08 14:59N 01°12' E 103°41'0 0.1
2017-Dec-08 14:26N 01°12' E 103°41'0 0.0
2017-Dec-08 13:53N 01°12' E 103°41'0 0.0
2017-Dec-08 13:29N 01°12' E 103°41'0 0.0
2017-Dec-08 12:59N 01°12' E 103°41'0 0.0
2017-Dec-08 12:29N 01°12' E 103°41'0 0.0
2017-Dec-08 11:59N 01°12' E 103°41'0 0.0
2017-Dec-08 11:29N 01°12' E 103°41'0 0.0
2017-Dec-08 10:59N 01°12' E 103°41'0 0.0
2017-Dec-08 10:29N 01°12' E 103°41'0 0.0
2017-Dec-08 09:59N 01°12' E 103°41'0 0.0
2017-Dec-08 09:30N 01°12' E 103°41'0 0.1
2017-Dec-08 09:00N 01°12' E 103°41'0 0.1
2017-Dec-08 08:30N 01°12' E 103°41'0 1.0
2017-Dec-08 08:00N 01°12' E 103°41'3 6.0
2017-Dec-08 07:30N 01°12' E 103°38'3 5.1
2017-Dec-08 07:00N 01°12' E 103°35'2 4.5
2017-Dec-08 06:30N 01°10' E 103°34'3 5.7
2017-Dec-08 05:59N 01°09' E 103°31'4 7.5
2017-Dec-08 05:30N 01°10' E 103°27'5 9.2
2017-Dec-08 04:59N 01°13' E 103°23'611.8
2017-Dec-08 04:28N 01°17' E 103°19'  
Track history (hours):
 
Tides and Currents Weather Stations Pressure Air Temp Water Temp Dewpoint Dewpoint Depression Visibility Wind Speed Wind Dir Waves Ship Positions

Silver Etrema

Last reported at 2017-Dec-08 21:32 UTC. Time now 2017-Dec-12 04:48 UTC.
Position N 01°14' E 103°58'.

Length 183 m; draft 11.7 m.

Type: Tanker. MMSI: 538006745.

Date/timePositionNaut miles runAvg speedWind from/ knotsBaromVisibWave heightAir tempDewpointWater temp
2017-Dec-08 21:32N 01°14' E 103°58'112.8
2017-Dec-08 21:30N 01°14' E 103°57'611.9
2017-Dec-08 21:00N 01°11' E 103°52'611.0
2017-Dec-08 20:30N 01°09' E 103°47'611.3
2017-Dec-08 20:00N 01°05' E 103°43'611.4
2017-Dec-08 19:30N 01°04' E 103°37'610.7
2017-Dec-08 18:59N 01°09' E 103°33'4 8.3
2017-Dec-08 18:30N 01°11' E 103°36'4 7.5
2017-Dec-08 18:00N 01°12' E 103°40'1 2.4
2017-Dec-08 17:30N 01°12' E 103°41'0 0.0
2017-Dec-08 16:59N 01°12' E 103°41'0 0.0
2017-Dec-08 16:29N 01°12' E 103°41'0 0.0
2017-Dec-08 15:59N 01°12' E 103°41'0 0.0
2017-Dec-08 15:26N 01°12' E 103°41'0 0.2
2017-Dec-08 14:59N 01°12' E 103°41'0 0.1
2017-Dec-08 14:26N 01°12' E 103°41'0 0.0
2017-Dec-08 13:53N 01°12' E 103°41'0 0.0
2017-Dec-08 13:29N 01°12' E 103°41'0 0.0
2017-Dec-08 12:59N 01°12' E 103°41'0 0.0
2017-Dec-08 12:29N 01°12' E 103°41'0 0.0
2017-Dec-08 11:59N 01°12' E 103°41'0 0.0
2017-Dec-08 11:29N 01°12' E 103°41'0 0.0
2017-Dec-08 10:59N 01°12' E 103°41'0 0.0
2017-Dec-08 10:29N 01°12' E 103°41'0 0.0
2017-Dec-08 09:59N 01°12' E 103°41'0 0.0
2017-Dec-08 09:30N 01°12' E 103°41'0 0.1
2017-Dec-08 09:00N 01°12' E 103°41'0 0.1
2017-Dec-08 08:30N 01°12' E 103°41'0 1.0
2017-Dec-08 08:00N 01°12' E 103°41'3 6.0
2017-Dec-08 07:30N 01°12' E 103°38'3 5.1
2017-Dec-08 07:00N 01°12' E 103°35'2 4.5
2017-Dec-08 06:30N 01°10' E 103°34'3 5.7
2017-Dec-08 05:59N 01°09' E 103°31'4 7.5
2017-Dec-08 05:30N 01°10' E 103°27'5 9.2
2017-Dec-08 04:59N 01°13' E 103°23'611.8
2017-Dec-08 04:28N 01°17' E 103°19'  

Dump ship's entire track history